Time;durP1;ratioP1;P1;durP2;ratioP2;P2;SDS_P1;SDS_P2;PMS_P1;PMS_P2;Temp;Humidity;BMP_temperature;BMP_pressure;BME280_temperature;BME280_humidity;BME280_pressure;Samples;Min_cycle;Max_cycle;Signal;HPM_P1;HPM_P2
2022/08/24 00:00:40;;;;;;;7.72;5.80;;;;;17.00;96626.00;;;;8297442;28;20297;-79
2022/08/24 00:04:43;;;;;;;6.40;5.70;;;;;16.90;96615.00;;;;8296601;28;20230;-83
2022/08/24 00:09:18;;;;;;;6.60;5.75;;;;;16.80;96620.00;;;;8296774;28;20221;-83
2022/08/24 00:13:21;;;;;;;7.28;5.50;;;;;16.70;96618.00;;;;8296505;28;20217;-83
2022/08/24 00:17:26;;;;;;;9.38;6.20;;;;;16.60;96612.00;;;;8286306;28;20284;-85
2022/08/24 00:22:00;;;;;;;7.60;5.63;;;;;16.60;96615.00;;;;8297234;28;20304;-84
2022/08/24 00:26:05;;;;;;;7.30;5.95;;;;;16.60;96614.00;;;;8295637;28;20308;-82
2022/08/24 00:30:14;;;;;;;6.72;5.97;;;;;16.70;96615.00;;;;8296697;28;20226;-81
2022/08/24 00:34:18;;;;;;;6.55;5.80;;;;;16.60;96614.00;;;;8295878;28;20259;-86
2022/08/24 00:38:22;;;;;;;8.23;6.05;;;;;16.60;96613.00;;;;8296560;28;20300;-84
2022/08/24 00:43:02;;;;;;;9.10;6.30;;;;;16.60;96610.00;;;;8284819;28;20675;-86
2022/08/24 00:47:11;;;;;;;6.35;5.38;;;;;16.60;96608.00;;;;8296140;28;20707;-86
2022/08/24 00:51:47;;;;;;;6.78;5.60;;;;;16.50;96613.00;;;;8295298;28;20251;-85
2022/08/24 00:55:56;;;;;;;6.03;5.28;;;;;16.40;96611.00;;;;8295515;28;20232;-86
2022/08/24 01:00:04;;;;;;;9.55;5.65;;;;;16.30;96617.00;;;;8294918;28;20229;-82
2022/08/24 01:04:10;;;;;;;6.55;5.22;;;;;16.20;96615.00;;;;8296563;28;20635;-81
2022/08/24 01:08:15;;;;;;;7.38;5.57;;;;;16.10;96615.00;;;;8295473;28;20238;-81
2022/08/24 01:12:19;;;;;;;7.57;6.13;;;;;16.00;96623.00;;;;8295277;28;20257;-82
2022/08/24 01:21:17;;;;;;;7.68;5.93;;;;;15.90;96616.00;;;;8294570;28;20692;-82
2022/08/24 01:25:23;;;;;;;7.35;5.97;;;;;15.80;96607.00;;;;8294631;28;20236;-83
2022/08/24 01:30:01;;;;;;;6.75;5.97;;;;;15.80;96606.00;;;;8294973;28;20305;-84
2022/08/24 01:34:05;;;;;;;8.90;6.10;;;;;15.70;96596.00;;;;8295394;28;20312;-84
2022/08/24 01:38:11;;;;;;;9.60;6.35;;;;;15.70;96592.00;;;;8294386;28;20228;-83
2022/08/24 01:42:49;;;;;;;9.48;7.20;;;;;15.70;96591.00;;;;8285176;28;20310;-84
2022/08/24 01:46:54;;;;;;;7.53;6.63;;;;;15.80;96599.00;;;;8293357;28;20673;-83
2022/08/24 01:50:57;;;;;;;8.55;6.60;;;;;15.70;96595.00;;;;8294619;28;20229;-82
2022/08/24 01:55:34;;;;;;;6.68;5.82;;;;;15.70;96597.00;;;;8294480;28;20386;-83
2022/08/24 01:59:39;;;;;;;9.10;7.35;;;;;15.60;96594.00;;;;8294770;28;20230;-81
2022/08/24 02:03:43;;;;;;;11.85;7.20;;;;;15.60;96590.00;;;;8294404;28;20228;-82
2022/08/24 02:07:46;;;;;;;12.75;7.65;;;;;15.60;96594.00;;;;8293136;28;20225;-83
2022/08/24 02:11:49;;;;;;;8.25;6.60;;;;;15.50;96596.00;;;;8293562;28;20332;-83
2022/08/24 02:15:54;;;;;;;9.65;6.03;;;;;15.50;96602.00;;;;8294150;28;20225;-82
2022/08/24 02:20:29;;;;;;;7.75;6.20;;;;;15.50;96604.00;;;;8291371;28;20303;-78
2022/08/24 02:25:03;;;;;;;10.70;6.15;;;;;15.50;96606.00;;;;8293414;28;20233;-81
2022/08/24 02:29:40;;;;;;;8.93;6.00;;;;;15.50;96606.00;;;;8300496;28;20602;-82
2022/08/24 02:34:19;;;;;;;9.90;6.68;;;;;15.40;96607.00;;;;8299533;28;20227;-78
2022/08/24 02:38:57;;;;;;;8.88;6.30;;;;;15.40;96611.00;;;;8299687;28;20214;-84
2022/08/24 02:43:30;;;;;;;11.65;7.20;;;;;15.30;96615.00;;;;8305724;28;20637;-85
2022/08/24 02:47:37;;;;;;;8.73;5.97;;;;;15.10;96611.00;;;;8300149;28;20228;-88
2022/08/24 02:51:43;;;;;;;9.80;6.07;;;;;15.00;96609.00;;;;8299431;28;20244;-88
2022/08/24 02:56:20;;;;;;;11.52;6.07;;;;;15.00;96608.00;;;;8300468;28;20236;-88
2022/08/24 03:00:57;;;;;;;9.40;6.45;;;;;15.00;96607.00;;;;8299243;28;20231;-87
2022/08/24 03:05:00;;;;;;;8.48;6.70;;;;;15.00;96613.00;;;;8299561;28;20218;-88
2022/08/24 03:09:04;;;;;;;11.45;7.10;;;;;15.10;96617.00;;;;8300000;28;20323;-88
2022/08/24 03:13:40;;;;;;;7.40;6.50;;;;;15.00;96619.00;;;;8291013;28;20319;-84
2022/08/24 03:18:18;;;;;;;10.60;6.53;;;;;15.00;96622.00;;;;8298035;28;20229;-80
2022/08/24 03:22:53;;;;;;;8.32;6.43;;;;;15.10;96627.00;;;;8298662;28;20213;-80
2022/08/24 03:27:32;;;;;;;6.57;5.65;;;;;15.00;96625.00;;;;8298820;28;20252;-87
2022/08/24 03:32:09;;;;;;;9.35;5.97;;;;;15.00;96623.00;;;;8296082;28;20599;-77
2022/08/24 03:36:45;;;;;;;8.90;6.10;;;;;15.00;96623.00;;;;8298415;28;20213;-75
2022/08/24 03:41:19;;;;;;;9.90;5.80;;;;;15.00;96623.00;;;;8297987;28;20230;-76
2022/08/24 03:45:56;;;;;;;7.35;5.95;;;;;15.00;96630.00;;;;8297827;28;20316;-75
2022/08/24 03:50:32;;;;;;;9.15;5.90;;;;;15.10;96633.00;;;;8297320;28;20222;-78
2022/08/24 03:55:11;;;;;;;8.43;6.03;;;;;15.00;96630.00;;;;8298614;28;20301;-74
2022/08/24 03:59:45;;;;;;;8.80;6.20;;;;;14.90;96634.00;;;;8283127;28;20220;-77
2022/08/24 04:04:20;;;;;;;12.35;7.35;;;;;14.90;96631.00;;;;8296622;28;20213;-77
2022/08/24 04:08:56;;;;;;;18.05;8.93;;;;;14.90;96628.00;;;;8297219;28;20639;-75
2022/08/24 04:13:35;;;;;;;11.38;7.93;;;;;15.00;96626.00;;;;8296780;28;20299;-76
2022/08/24 04:18:09;;;;;;;27.73;15.02;;;;;15.20;96637.00;;;;8295294;28;20220;-75
2022/08/24 04:22:46;;;;;;;24.42;14.35;;;;;15.40;96620.00;;;;8297014;28;20323;-75
2022/08/24 04:27:23;;;;;;;26.80;14.55;;;;;15.70;96619.00;;;;8295796;28;20301;-75
2022/08/24 04:32:14;;;;;;;23.67;14.10;;;;;15.80;96625.00;;;;8296674;28;20563;-74
2022/08/24 04:36:43;;;;;;;28.00;14.88;;;;;16.00;96626.00;;;;8295931;28;20218;-72
2022/08/24 04:41:18;;;;;;;9.82;7.15;;;;;16.10;96630.00;;;;8296232;28;20300;-74
2022/08/24 04:45:54;;;;;;;7.35;5.85;;;;;15.70;96637.00;;;;8295842;28;20611;-78
2022/08/24 04:50:34;;;;;;;7.10;5.45;;;;;15.40;96641.00;;;;8295309;28;20642;-79
2022/08/24 04:55:10;;;;;;;9.18;5.55;;;;;15.40;96649.00;;;;8286158;28;20226;-79
2022/08/24 04:59:43;;;;;;;9.70;5.95;;;;;15.30;96649.00;;;;8284719;28;20217;-79
2022/08/24 05:03:48;;;;;;;7.63;5.90;;;;;15.40;96653.00;;;;8295614;28;20312;-79
2022/08/24 05:07:51;;;;;;;10.70;7.03;;;;;15.50;96651.00;;;;8295069;28;20263;-78
2022/08/24 05:12:00;;;;;;;9.55;5.70;;;;;15.60;96652.00;;;;8295647;28;20282;-78
2022/08/24 05:16:36;;;;;;;9.73;6.13;;;;;15.70;96649.00;;;;8285107;28;20323;-78
2022/08/24 05:21:10;;;;;;;11.30;6.57;;;;;15.70;96652.00;;;;8285359;28;20229;-79
2022/08/24 05:25:47;;;;;;;8.95;6.47;;;;;15.80;96655.00;;;;8294938;28;20233;-80
2022/08/24 05:30:25;;;;;;;10.10;7.25;;;;;16.10;96663.00;;;;8294899;28;20529;-80
2022/08/24 05:35:00;;;;;;;8.30;7.00;;;;;16.30;96658.00;;;;8293463;28;20233;-72
2022/08/24 05:39:06;;;;;;;7.15;5.97;;;;;16.50;96649.00;;;;8294713;28;20659;-73
2022/08/24 05:43:13;;;;;;;7.85;6.70;;;;;16.70;96656.00;;;;8294196;28;20222;-73
2022/08/24 05:47:17;;;;;;;8.35;6.65;;;;;16.90;96666.00;;;;8294985;28;20220;-74
2022/08/24 05:51:56;;;;;;;9.23;6.93;;;;;17.10;96669.00;;;;8292538;28;20636;-69
2022/08/24 05:56:32;;;;;;;8.02;6.32;;;;;17.40;96673.00;;;;8293114;28;20237;-74
2022/08/24 06:01:11;;;;;;;13.43;7.57;;;;;17.60;96678.00;;;;8294525;28;20218;-73
2022/08/24 06:05:47;;;;;;;13.27;9.23;;;;;17.90;96664.00;;;;8284924;28;20646;-72
2022/08/24 06:10:21;;;;;;;17.75;12.80;;;;;18.20;96671.00;;;;8298825;28;20214;-71
2022/08/24 06:14:58;;;;;;;17.90;12.80;;;;;18.40;96667.00;;;;8295590;28;20574;-71
2022/08/24 06:19:36;;;;;;;22.63;12.13;;;;;18.70;96678.00;;;;8300908;28;20217;-72
2022/08/24 06:24:15;;;;;;;19.80;11.13;;;;;18.80;96674.00;;;;8291868;28;20222;-73
2022/08/24 06:28:48;;;;;;;18.38;10.93;;;;;19.00;96676.00;;;;8287066;28;20217;-75
2022/08/24 06:33:20;;;;;;;18.73;11.15;;;;;19.10;96673.00;;;;8299749;28;20233;-73
2022/08/24 06:37:25;;;;;;;18.90;11.10;;;;;19.30;96673.00;;;;8280533;28;20230;-74
2022/08/24 06:42:00;;;;;;;16.65;11.43;;;;;19.40;96675.00;;;;8267307;28;20219;-73
2022/08/24 06:46:35;;;;;;;13.10;9.63;;;;;19.50;96678.00;;;;8267288;28;20245;-72
2022/08/24 06:51:13;;;;;;;21.90;10.43;;;;;19.70;96685.00;;;;8266258;28;20226;-73
2022/08/24 06:55:48;;;;;;;13.90;10.32;;;;;19.80;96689.00;;;;8265688;28;20306;-73
2022/08/24 07:00:23;;;;;;;12.82;9.68;;;;;19.80;96693.00;;;;8267695;28;20221;-73
2022/08/24 07:04:58;;;;;;;14.27;9.23;;;;;20.10;96699.00;;;;8255178;28;20214;-73
2022/08/24 07:09:35;;;;;;;15.18;9.07;;;;;20.20;96709.00;;;;8265861;28;20584;-74
2022/08/24 07:14:12;;;;;;;12.13;8.75;;;;;20.40;96702.00;;;;8265704;28;20641;-74
2022/08/24 07:18:48;;;;;;;9.98;8.40;;;;;20.80;96704.00;;;;8264930;28;20608;-74
2022/08/24 07:23:23;;;;;;;11.48;8.30;;;;;21.40;96710.00;;;;8265382;28;20218;-75
2022/08/24 07:28:02;;;;;;;8.98;7.45;;;;;22.30;96706.00;;;;8265603;28;20261;-74
2022/08/24 07:32:36;;;;;;;9.18;7.35;;;;;23.10;96706.00;;;;8264909;28;20508;-73
2022/08/24 07:36:41;;;;;;;10.10;7.75;;;;;23.90;96710.00;;;;8260188;28;20240;-75
2022/08/24 07:41:17;;;;;;;8.98;7.40;;;;;24.30;96702.00;;;;8297906;28;20814;-72
2022/08/24 07:45:43;;;;;;;11.80;7.38;;;;;24.90;96711.00;;;;8298075;28;20237;-72
2022/08/24 07:50:17;;;;;;;10.55;7.75;;;;;25.30;96712.00;;;;8297521;28;20249;-75
2022/08/24 07:54:53;;;;;;;9.75;5.95;;;;;26.00;96706.00;;;;8297121;28;20225;-75
2022/08/24 07:59:27;;;;;;;7.57;5.72;;;;;27.10;96710.00;;;;8297037;28;20224;-76
2022/08/24 08:04:04;;;;;;;7.28;6.47;;;;;27.80;96708.00;;;;8296547;28;20228;-74
2022/08/24 08:08:41;;;;;;;9.25;6.55;;;;;28.20;96710.00;;;;8296607;28;20210;-75
2022/08/24 08:13:19;;;;;;;9.23;5.65;;;;;28.60;96713.00;;;;8296624;28;20658;-75
2022/08/24 08:17:53;;;;;;;6.35;5.75;;;;;28.70;96722.00;;;;8296338;28;20309;-75
2022/08/24 08:27:04;;;;;;;5.35;4.95;;;;;28.90;96718.00;;;;8295268;28;20719;-75
2022/08/24 08:31:09;;;;;;;5.63;5.10;;;;;29.00;96715.00;;;;8294976;28;20224;-75
2022/08/24 08:35:14;;;;;;;5.15;4.43;;;;;29.10;96722.00;;;;8296656;28;20702;-76
2022/08/24 08:39:20;;;;;;;5.07;4.57;;;;;28.80;96725.00;;;;8296580;28;20264;-76
2022/08/24 08:43:39;;;;;;;5.68;4.60;;;;;28.80;96725.00;;;;8295069;28;20220;-76
2022/08/24 08:48:32;;;;;;;4.78;4.38;;;;;29.30;96723.00;;;;8295593;28;20636;-76
2022/08/24 08:53:07;;;;;;;4.63;4.05;;;;;29.80;96721.00;;;;8295379;28;20226;-76
2022/08/24 08:57:26;;;;;;;4.82;4.43;;;;;30.00;96721.00;;;;8295930;28;20218;-76
2022/08/24 09:02:01;;;;;;;5.22;3.90;;;;;30.30;96727.00;;;;8295014;28;20563;-76
2022/08/24 09:06:35;;;;;;;8.50;3.97;;;;;30.70;96734.00;;;;8295788;28;20293;-76
2022/08/24 09:11:07;;;;;;;6.50;4.38;;;;;31.10;96729.00;;;;8294696;28;20222;-77
2022/08/24 09:15:28;;;;;;;5.63;4.63;;;;;30.80;96727.00;;;;8271779;28;20610;-76
2022/08/24 09:20:17;;;;;;;5.63;5.03;;;;;29.80;96720.00;;;;8285321;28;20301;-76
2022/08/24 09:24:58;;;;;;;7.57;5.20;;;;;29.80;96723.00;;;;8293201;28;20648;-76
2022/08/24 09:29:43;;;;;;;5.55;4.70;;;;;29.50;96711.00;;;;8290822;28;20249;-76
2022/08/24 09:34:00;;;;;;;6.47;5.07;;;;;29.80;96717.00;;;;8289000;28;20237;-76
2022/08/24 09:38:17;;;;;;;5.18;4.78;;;;;30.40;96725.00;;;;8293419;28;20218;-75
2022/08/24 09:42:57;;;;;;;5.43;4.93;;;;;29.80;96719.00;;;;8293160;28;20234;-76
2022/08/24 09:47:39;;;;;;;5.72;4.53;;;;;28.60;96730.00;;;;8293534;28;20218;-76
2022/08/24 09:52:20;;;;;;;8.70;5.15;;;;;28.10;96727.00;;;;8286980;28;20301;-74
2022/08/24 09:57:08;;;;;;;5.10;4.65;;;;;28.00;96725.00;;;;8292569;28;20301;-76
2022/08/24 10:01:38;;;;;;;5.30;4.80;;;;;27.80;96718.00;;;;8292623;28;20221;-74
2022/08/24 10:06:20;;;;;;;5.50;5.00;;;;;27.80;96719.00;;;;8291539;28;20221;-75
2022/08/24 10:10:50;;;;;;;5.18;4.50;;;;;27.80;96710.00;;;;8291214;28;20236;-73
2022/08/24 10:15:24;;;;;;;4.88;4.45;;;;;28.00;96713.00;;;;8292451;28;20236;-75
2022/08/24 10:20:07;;;;;;;5.18;4.60;;;;;28.00;96708.00;;;;8292654;28;20296;-77
2022/08/24 10:24:46;;;;;;;4.00;3.70;;;;;28.00;96702.00;;;;8293261;28;20256;-84
2022/08/24 10:29:22;;;;;;;3.58;3.33;;;;;29.40;96699.00;;;;8283961;28;20233;-84
2022/08/24 10:33:27;;;;;;;5.32;4.18;;;;;31.20;96703.00;;;;8292539;28;20313;-84
2022/08/24 10:37:47;;;;;;;3.83;3.53;;;;;31.80;96700.00;;;;8293103;28;20244;-84
2022/08/24 10:47:00;;;;;;;3.50;3.20;;;;;31.30;96698.00;;;;8293620;28;20221;-84
2022/08/24 10:51:16;;;;;;;3.78;3.50;;;;;32.40;96704.00;;;;8298629;28;20221;-81
2022/08/24 10:55:41;;;;;;;5.40;3.72;;;;;32.80;96694.00;;;;8299089;28;20232;-84
2022/08/24 11:00:20;;;;;;;5.82;4.30;;;;;32.60;96697.00;;;;8297903;28;20258;-84
2022/08/24 11:04:52;;;;;;;5.45;3.72;;;;;31.60;96688.00;;;;8299018;28;20213;-83
2022/08/24 11:09:43;;;;;;;4.00;3.70;;;;;30.80;96698.00;;;;8298856;28;20218;-84
2022/08/24 11:14:09;;;;;;;4.97;4.43;;;;;30.10;96698.00;;;;8296982;28;20808;-84
2022/08/24 11:18:47;;;;;;;4.47;3.90;;;;;30.00;96691.00;;;;8296667;28;20252;-82
2022/08/24 11:23:17;;;;;;;5.20;4.22;;;;;30.40;96697.00;;;;8297161;28;20257;-84
2022/08/24 11:27:59;;;;;;;7.03;3.78;;;;;30.50;96698.00;;;;8296674;28;20296;-83
2022/08/24 11:32:33;;;;;;;4.95;4.00;;;;;30.30;96695.00;;;;8297755;28;20297;-83
2022/08/24 11:36:39;;;;;;;7.70;5.85;;;;;30.60;96694.00;;;;8297136;28;20230;-85
2022/08/24 11:41:16;;;;;;;4.25;3.30;;;;;30.30;96690.00;;;;8297942;28;20229;-82
2022/08/24 11:45:58;;;;;;;4.78;4.38;;;;;29.60;96682.00;;;;8297514;28;20301;-82
2022/08/24 11:50:31;;;;;;;5.38;4.88;;;;;28.80;96693.00;;;;8297771;28;20222;-82
2022/08/24 11:55:06;;;;;;;6.40;5.00;;;;;27.90;96695.00;;;;8286887;28;20224;-83
2022/08/24 11:59:42;;;;;;;5.50;4.93;;;;;27.40;96691.00;;;;8296909;28;20213;-81
2022/08/24 12:04:12;;;;;;;6.25;5.63;;;;;27.00;96698.00;;;;8296824;28;20222;-82
2022/08/24 12:08:54;;;;;;;10.35;5.55;;;;;26.90;96697.00;;;;8297201;28;20312;-82
2022/08/24 12:13:30;;;;;;;6.68;5.60;;;;;26.90;96698.00;;;;8296899;28;20628;-81
2022/08/24 12:17:38;;;;;;;7.97;5.60;;;;;27.10;96702.00;;;;8296695;28;20240;-81
2022/08/24 12:22:09;;;;;;;8.82;5.65;;;;;27.40;96703.00;;;;8295965;28;20233;-79
2022/08/24 12:26:50;;;;;;;7.05;5.28;;;;;27.70;96701.00;;;;8296392;28;20612;-81
2022/08/24 12:31:23;;;;;;;8.18;5.20;;;;;27.90;96696.00;;;;8296178;28;20222;-81
2022/08/24 12:36:01;;;;;;;10.63;5.75;;;;;28.00;96696.00;;;;8295959;28;20726;-81
2022/08/24 12:40:38;;;;;;;6.18;5.57;;;;;28.00;96690.00;;;;8296821;28;20719;-80
2022/08/24 12:45:11;;;;;;;7.78;6.05;;;;;28.20;96674.00;;;;8296081;28;20238;-80
2022/08/24 12:49:21;;;;;;;6.75;5.68;;;;;28.80;96683.00;;;;8295711;28;20716;-80
2022/08/24 12:53:49;;;;;;;6.72;5.95;;;;;29.10;96682.00;;;;8297066;28;20230;-79
2022/08/24 12:58:08;;;;;;;9.05;6.72;;;;;29.30;96678.00;;;;8295705;28;20309;-80
2022/08/24 13:02:44;;;;;;;8.48;6.30;;;;;29.60;96680.00;;;;8295344;28;20225;-80
2022/08/24 13:07:29;;;;;;;7.40;6.03;;;;;29.90;96672.00;;;;8295795;28;20222;-80
2022/08/24 13:11:57;;;;;;;6.28;5.68;;;;;30.10;96670.00;;;;8295018;28;20727;-80
2022/08/24 13:16:37;;;;;;;9.93;5.90;;;;;30.40;96663.00;;;;8294269;28;20279;-80
2022/08/24 13:21:15;;;;;;;8.25;6.07;;;;;30.50;96669.00;;;;8288449;28;20648;-79
2022/08/24 13:25:48;;;;;;;8.60;6.35;;;;;30.30;96666.00;;;;8295073;28;20309;-79
2022/08/24 13:30:28;;;;;;;10.40;6.70;;;;;30.30;96667.00;;;;8293933;28;20237;-79
2022/08/24 13:34:59;;;;;;;7.85;6.13;;;;;30.30;96666.00;;;;8293667;28;20312;-79
2022/08/24 13:44:25;;;;;;;8.80;5.97;;;;;29.80;96663.00;;;;8294225;28;20223;-78
2022/08/24 13:48:58;;;;;;;8.93;6.10;;;;;29.60;96659.00;;;;8293315;28;20317;-78
2022/08/24 13:53:46;;;;;;;7.05;5.57;;;;;30.50;96656.00;;;;8293581;28;20253;-76
2022/08/24 13:58:16;;;;;;;8.75;6.32;;;;;31.00;96647.00;;;;8292620;28;20231;-78
2022/08/24 14:02:55;;;;;;;6.40;5.75;;;;;30.80;96652.00;;;;8292564;28;20221;-78
2022/08/24 14:07:25;;;;;;;7.65;6.25;;;;;30.70;96655.00;;;;8293457;28;20552;-77
2022/08/24 14:12:04;;;;;;;7.90;5.97;;;;;30.30;96663.00;;;;8293903;28;20623;-78
2022/08/24 14:21:21;;;;;;;10.75;5.20;;;;;32.00;96650.00;;;;8292646;28;20249;-79
2022/08/24 14:25:54;;;;;;;7.47;5.53;;;;;31.50;96645.00;;;;8299332;28;20308;-80
2022/08/24 14:30:34;;;;;;;7.38;5.75;;;;;30.50;96655.00;;;;8299378;28;20230;-79
2022/08/24 14:34:47;;;;;;;9.68;6.00;;;;;30.10;96648.00;;;;8298591;28;20222;-79
2022/08/24 14:39:09;;;;;;;8.20;5.93;;;;;29.90;96645.00;;;;8299568;28;20222;-80
2022/08/24 14:43:48;;;;;;;7.90;5.28;;;;;30.00;96648.00;;;;8298444;28;20218;-79
2022/08/24 14:48:06;;;;;;;6.63;5.75;;;;;30.00;96648.00;;;;8298364;28;20217;-79
2022/08/24 14:52:54;;;;;;;7.22;4.93;;;;;29.90;96651.00;;;;8295589;28;20305;-78
2022/08/24 14:57:14;;;;;;;9.48;5.80;;;;;29.80;96647.00;;;;8294372;28;20233;-79
2022/08/24 15:01:39;;;;;;;7.68;6.10;;;;;29.50;96651.00;;;;8299146;28;20265;-80
2022/08/24 15:06:20;;;;;;;7.18;5.57;;;;;29.10;96645.00;;;;8297811;28;20861;-76
2022/08/24 15:10:37;;;;;;;7.53;5.88;;;;;29.00;96649.00;;;;8298673;28;20222;-77
2022/08/24 15:15:09;;;;;;;8.13;6.00;;;;;29.40;96638.00;;;;8298156;28;20308;-78
2022/08/24 15:19:46;;;;;;;6.57;5.80;;;;;29.80;96637.00;;;;8297855;28;20214;-78
2022/08/24 15:24:05;;;;;;;9.68;5.93;;;;;29.50;96634.00;;;;8299130;28;20732;-78
2022/08/24 15:28:31;;;;;;;8.68;5.95;;;;;29.50;96623.00;;;;8297762;28;20326;-78
2022/08/24 15:33:05;;;;;;;6.97;5.40;;;;;29.60;96621.00;;;;8298122;28;20245;-78
2022/08/24 15:37:39;;;;;;;6.32;5.43;;;;;29.50;96620.00;;;;8292634;28;20962;-78
2022/08/24 15:41:43;;;;;;;8.00;5.90;;;;;29.50;96626.00;;;;8292569;28;20357;-77
2022/08/24 15:45:51;;;;;;;5.97;5.38;;;;;29.30;96623.00;;;;8297116;28;20233;-77
2022/08/24 15:50:24;;;;;;;7.82;5.80;;;;;29.10;96627.00;;;;8297033;28;20276;-78
2022/08/24 15:54:35;;;;;;;9.93;5.90;;;;;29.10;96626.00;;;;8298365;28;20221;-79
2022/08/24 15:59:07;;;;;;;6.60;5.65;;;;;29.10;96625.00;;;;8298880;28;20309;-76
2022/08/24 16:03:49;;;;;;;9.07;5.90;;;;;29.60;96623.00;;;;8296311;28;20225;-75
2022/08/24 16:08:21;;;;;;;5.75;5.05;;;;;30.40;96616.00;;;;8297894;28;20671;-74
2022/08/24 16:12:55;;;;;;;6.65;4.72;;;;;30.90;96618.00;;;;8297763;28;20225;-74
2022/08/24 16:17:34;;;;;;;5.88;5.28;;;;;31.30;96622.00;;;;8296252;28;20309;-74
2022/08/24 16:22:13;;;;;;;6.38;5.38;;;;;31.50;96623.00;;;;8296328;28;20305;-74
2022/08/24 16:26:58;;;;;;;5.70;4.75;;;;;31.10;96627.00;;;;8295637;28;20245;-74
2022/08/24 16:36:35;;;;;;;7.82;5.65;;;;;30.00;96631.00;;;;8292090;28;20313;-75
2022/08/24 16:45:56;;;;;;;7.22;5.68;;;;;29.00;96626.00;;;;8290284;28;20301;-73
2022/08/24 16:50:30;;;;;;;6.80;5.63;;;;;28.70;96627.00;;;;8291738;28;20575;-78
2022/08/24 16:55:07;;;;;;;5.88;5.28;;;;;28.30;96615.00;;;;8295232;28;20237;-79
2022/08/24 16:59:47;;;;;;;9.00;5.22;;;;;28.80;96620.00;;;;8294212;28;20264;-80
2022/08/24 17:04:22;;;;;;;6.13;5.53;;;;;29.30;96622.00;;;;8292605;28;20396;-78
2022/08/24 17:08:59;;;;;;;7.43;4.60;;;;;29.60;96620.00;;;;8292312;28;20241;-79
2022/08/24 17:13:35;;;;;;;5.15;4.40;;;;;29.60;96625.00;;;;8293143;28;20378;-78
2022/08/24 17:18:12;;;;;;;5.07;4.60;;;;;29.10;96621.00;;;;8293046;28;20222;-78
2022/08/24 17:22:50;;;;;;;9.10;4.75;;;;;28.50;96610.00;;;;8295848;28;20213;-77
2022/08/24 17:27:24;;;;;;;5.85;5.13;;;;;27.80;96615.00;;;;8294833;28;20641;-78
2022/08/24 17:32:01;;;;;;;8.77;5.00;;;;;27.20;96614.00;;;;8294868;28;20237;-77
2022/08/24 17:36:38;;;;;;;7.30;5.10;;;;;26.80;96625.00;;;;8293102;28;20225;-78
2022/08/24 17:40:46;;;;;;;8.05;5.20;;;;;26.40;96619.00;;;;8293255;28;20221;-76
2022/08/24 17:45:21;;;;;;;9.90;5.45;;;;;26.10;96617.00;;;;8291590;28;20320;-79
2022/08/24 17:49:48;;;;;;;6.10;5.00;;;;;25.90;96621.00;;;;8293010;28;20228;-78
2022/08/24 17:54:27;;;;;;;7.13;5.13;;;;;25.70;96620.00;;;;8293688;28;20213;-78
2022/08/24 17:59:22;;;;;;;8.75;5.20;;;;;25.50;96620.00;;;;8293784;28;20575;-78
2022/08/24 18:03:41;;;;;;;7.13;5.68;;;;;25.20;96616.00;;;;8292727;28;20650;-78
2022/08/24 18:08:15;;;;;;;8.40;5.45;;;;;25.00;96620.00;;;;8291047;28;20676;-79
2022/08/24 18:12:52;;;;;;;8.52;5.53;;;;;24.80;96628.00;;;;8294167;28;20658;-78
2022/08/24 18:17:33;;;;;;;7.65;5.57;;;;;24.50;96633.00;;;;8291226;28;20603;-81
2022/08/24 18:22:04;;;;;;;10.27;5.70;;;;;24.30;96627.00;;;;8293372;28;20301;-81
2022/08/24 18:26:41;;;;;;;8.43;5.68;;;;;24.10;96637.00;;;;8291969;28;20229;-83
2022/08/24 18:31:18;;;;;;;8.77;6.32;;;;;23.90;96636.00;;;;8293337;28;20222;-80
2022/08/24 18:35:52;;;;;;;11.35;6.28;;;;;23.70;96645.00;;;;8293227;28;20226;-80
2022/08/24 18:45:15;;;;;;;8.18;5.97;;;;;23.50;96652.00;;;;8293868;28;20271;-77
2022/08/24 18:49:50;;;;;;;6.60;5.88;;;;;23.40;96658.00;;;;8289872;28;20299;-78
2022/08/24 18:54:31;;;;;;;15.13;6.78;;;;;23.30;96664.00;;;;8291554;28;20225;-77
2022/08/24 18:59:02;;;;;;;7.20;5.85;;;;;23.20;96663.00;;;;8293545;28;20237;-77
2022/08/24 19:03:41;;;;;;;7.13;5.97;;;;;23.10;96660.00;;;;8293647;28;20218;-77
2022/08/24 19:08:16;;;;;;;8.98;6.15;;;;;23.00;96669.00;;;;8294088;28;20301;-77
2022/08/24 19:12:52;;;;;;;9.15;6.25;;;;;23.00;96672.00;;;;8299097;28;20226;-75
2022/08/24 19:16:55;;;;;;;8.65;6.13;;;;;22.90;96675.00;;;;8298228;28;20213;-77
2022/08/24 19:21:34;;;;;;;9.00;6.75;;;;;22.80;96678.00;;;;8298629;28;20217;-78
2022/08/24 19:26:09;;;;;;;11.50;7.32;;;;;22.70;96669.00;;;;8298772;28;20233;-78
2022/08/24 19:30:47;;;;;;;11.55;7.43;;;;;22.60;96673.00;;;;8298316;28;20309;-78
2022/08/24 19:35:21;;;;;;;9.82;6.55;;;;;22.50;96665.00;;;;8298335;28;20221;-78
2022/08/24 19:40:00;;;;;;;9.70;6.82;;;;;22.40;96666.00;;;;8294035;28;20314;-78
2022/08/24 19:49:13;;;;;;;9.55;7.25;;;;;22.10;96663.00;;;;8295880;28;20304;-79
2022/08/24 19:53:20;;;;;;;10.95;7.55;;;;;22.00;96669.00;;;;8297819;28;20667;-77
2022/08/24 19:57:41;;;;;;;11.13;7.30;;;;;21.90;96660.00;;;;8297908;28;20293;-77
2022/08/24 20:01:44;;;;;;;12.85;7.85;;;;;21.90;96673.00;;;;8298385;28;20340;-77
2022/08/24 20:06:22;;;;;;;11.30;8.02;;;;;21.70;96678.00;;;;8297386;28;20337;-76
2022/08/24 20:10:27;;;;;;;10.80;8.35;;;;;21.60;96676.00;;;;8297938;28;20276;-77
2022/08/24 20:14:31;;;;;;;11.07;7.30;;;;;21.50;96669.00;;;;8297058;28;20224;-78
2022/08/24 20:18:39;;;;;;;11.07;8.77;;;;;21.50;96676.00;;;;8296678;28;20234;-81
2022/08/24 20:23:16;;;;;;;10.52;7.97;;;;;21.50;96673.00;;;;8296820;28;20236;-80
2022/08/24 20:27:22;;;;;;;11.82;7.40;;;;;21.40;96676.00;;;;8296564;28;20236;-82
2022/08/24 20:32:01;;;;;;;12.07;8.43;;;;;21.30;96685.00;;;;8296197;28;20257;-81
2022/08/24 20:36:05;;;;;;;14.93;8.95;;;;;21.20;96685.00;;;;8297300;28;20248;-81
2022/08/24 20:40:39;;;;;;;12.05;8.15;;;;;21.10;96686.00;;;;8296567;28;20690;-81
2022/08/24 20:44:43;;;;;;;14.05;8.77;;;;;21.00;96691.00;;;;8295907;28;20229;-81
2022/08/24 20:49:25;;;;;;;13.05;9.18;;;;;21.00;96687.00;;;;8297196;28;20313;-82
2022/08/24 20:53:30;;;;;;;13.23;9.52;;;;;20.90;96686.00;;;;8295487;28;20222;-81
2022/08/24 20:57:33;;;;;;;11.30;8.60;;;;;20.90;96689.00;;;;8296139;28;20226;-81
2022/08/24 21:01:36;;;;;;;14.25;8.77;;;;;20.90;96684.00;;;;8296076;28;20610;-81
2022/08/24 21:05:41;;;;;;;13.00;8.88;;;;;20.90;96684.00;;;;8295478;28;20317;-81
2022/08/24 21:10:16;;;;;;;14.90;8.80;;;;;20.80;96682.00;;;;8295161;28;20234;-81
2022/08/24 21:14:19;;;;;;;11.10;8.70;;;;;20.80;96685.00;;;;8296003;28;20229;-81
2022/08/24 21:18:59;;;;;;;13.45;9.35;;;;;20.70;96686.00;;;;8295060;28;20689;-82
2022/08/24 21:23:05;;;;;;;15.65;9.27;;;;;20.60;96685.00;;;;8294706;28;20245;-82
2022/08/24 21:27:09;;;;;;;12.60;8.48;;;;;20.60;96687.00;;;;8294920;28;20746;-81
2022/08/24 21:34:39;;;;;;;12.52;9.90;;;;;20.60;96679.00;;;;8295575;28;20220;-81
2022/08/24 21:36:10;;;;;;;10.98;8.68;;;;;20.50;96680.00;;;;8294766;28;20289;-78
2022/08/24 21:40:14;;;;;;;10.73;8.65;;;;;20.40;96672.00;;;;8295180;28;20232;-78
2022/08/24 21:49:34;;;;;;;13.88;9.30;;;;;20.40;96670.00;;;;8295206;28;20243;-79
2022/08/24 21:53:37;;;;;;;12.13;8.70;;;;;20.40;96669.00;;;;8295556;28;20269;-80
2022/08/24 21:58:13;;;;;;;13.93;9.73;;;;;20.40;96672.00;;;;8294258;28;20679;-80
2022/08/24 22:02:16;;;;;;;16.40;9.98;;;;;20.30;96666.00;;;;8294466;28;20241;-79
2022/08/24 22:06:22;;;;;;;11.55;9.10;;;;;20.30;96663.00;;;;8293724;28;20276;-79
2022/08/24 22:10:58;;;;;;;13.63;8.77;;;;;20.30;96660.00;;;;8294096;28;20218;-79
2022/08/24 22:15:05;;;;;;;12.40;8.35;;;;;20.30;96655.00;;;;8293900;28;20591;-79
2022/08/24 22:19:09;;;;;;;13.73;9.32;;;;;20.20;96660.00;;;;8294999;28;20232;-79
2022/08/24 22:23:45;;;;;;;12.35;8.95;;;;;20.10;96658.00;;;;8294078;28;20250;-79
2022/08/24 22:27:48;;;;;;;13.57;9.32;;;;;20.10;96659.00;;;;8293724;28;20312;-79
2022/08/24 22:31:53;;;;;;;13.48;8.95;;;;;20.10;96658.00;;;;8294143;28;20297;-79
2022/08/24 22:35:56;;;;;;;12.13;8.85;;;;;20.10;96659.00;;;;8294397;28;20217;-79
2022/08/24 22:39:59;;;;;;;10.98;8.35;;;;;20.10;96652.00;;;;8293837;28;20658;-80
2022/08/24 22:44:20;;;;;;;12.07;8.80;;;;;20.10;96649.00;;;;8297221;28;20222;-79
2022/08/24 22:48:25;;;;;;;12.30;9.18;;;;;20.00;96648.00;;;;8300294;28;20214;-79
2022/08/24 22:52:59;;;;;;;13.48;9.48;;;;;20.00;96642.00;;;;8299879;28;20656;-80
2022/08/24 22:57:03;;;;;;;13.35;8.90;;;;;20.00;96640.00;;;;8298993;28;20632;-79